Elcho, Wisconsin
Current Conditions -  °F | °C
As of 12:53 AM on Saturday 29 Nov 2014 (Local Time) from KRHI Reporting Station
Overcast Overcast  
Wind Chill: -14°   Ceiling: 600
Heat Index: -9°   Visibility: 7mi
Dew Point: -11°   Wind: 6mph
Humidity: 91%   Direction: 120°ESE
Pressure: 29.73"   Gusts: NA
Location:  45.44°N, 89.18°W
Report Text: KRHI 290653Z AUTO 12005KT 7SM OVC006 M09/M11 A2973 RMK AO2 SLP098 T10941106
Loading
Personal Weather Stations






























Interactive Weather Map New forecast layout! Learn more

10-Day Weather Forecast

Advertisements
Track Severe Weather on mobile